sensor_id;sensor_type;location;lat;lon;timestamp;pressure;altitude;pressure_sealevel;temperature;humidity
70684;BME280;58263;48.146;11.440;2024-01-30T00:01:16;97056.16;;;-0.27;79.23
70684;BME280;58263;48.146;11.440;2024-01-30T00:03:42;97056.91;;;-0.15;79.49
70684;BME280;58263;48.146;11.440;2024-01-30T00:06:08;97055.56;;;-0.30;79.49
70684;BME280;58263;48.146;11.440;2024-01-30T00:08:33;97050.50;;;-0.43;80.38
70684;BME280;58263;48.146;11.440;2024-01-30T00:10:59;97059.88;;;-0.51;80.62
70684;BME280;58263;48.146;11.440;2024-01-30T00:13:24;97053.00;;;-0.42;80.70
70684;BME280;58263;48.146;11.440;2024-01-30T00:15:49;97057.63;;;-0.34;80.05
70684;BME280;58263;48.146;11.440;2024-01-30T00:18:24;97058.97;;;-0.40;79.93
70684;BME280;58263;48.146;11.440;2024-01-30T00:20:49;97063.88;;;-0.35;80.29
70684;BME280;58263;48.146;11.440;2024-01-30T00:23:14;97058.38;;;-0.22;79.98
70684;BME280;58263;48.146;11.440;2024-01-30T00:25:39;97059.25;;;-0.22;79.16
70684;BME280;58263;48.146;11.440;2024-01-30T00:28:05;97053.00;;;-0.42;80.14
70684;BME280;58263;48.146;11.440;2024-01-30T00:30:30;97055.38;;;-0.39;80.13
70684;BME280;58263;48.146;11.440;2024-01-30T00:32:55;97062.41;;;-0.49;80.13
70684;BME280;58263;48.146;11.440;2024-01-30T00:35:20;97062.81;;;-0.44;80.03
70684;BME280;58263;48.146;11.440;2024-01-30T00:37:47;97062.22;;;-0.57;80.43
70684;BME280;58263;48.146;11.440;2024-01-30T00:40:13;97062.06;;;-0.56;80.75
70684;BME280;58263;48.146;11.440;2024-01-30T00:42:42;97071.00;;;-0.47;80.72
70684;BME280;58263;48.146;11.440;2024-01-30T00:45:12;97070.53;;;-0.52;80.20
70684;BME280;58263;48.146;11.440;2024-01-30T00:47:37;97067.66;;;-0.49;79.96
70684;BME280;58263;48.146;11.440;2024-01-30T00:50:03;97074.81;;;-0.93;81.61
70684;BME280;58263;48.146;11.440;2024-01-30T00:52:28;97073.34;;;-1.18;83.08
70684;BME280;58263;48.146;11.440;2024-01-30T00:54:53;97069.50;;;-1.14;82.94
70684;BME280;58263;48.146;11.440;2024-01-30T00:57:18;97075.06;;;-0.96;82.20
70684;BME280;58263;48.146;11.440;2024-01-30T00:59:44;97067.38;;;-0.88;81.64
70684;BME280;58263;48.146;11.440;2024-01-30T01:02:09;97077.91;;;-0.88;81.96
70684;BME280;58263;48.146;11.440;2024-01-30T01:04:34;97073.13;;;-0.94;82.45
70684;BME280;58263;48.146;11.440;2024-01-30T01:06:59;97076.94;;;-1.20;83.47
70684;BME280;58263;48.146;11.440;2024-01-30T01:09:25;97073.59;;;-1.33;84.41
70684;BME280;58263;48.146;11.440;2024-01-30T01:11:51;97074.19;;;-1.29;84.55
70684;BME280;58263;48.146;11.440;2024-01-30T01:14:16;97073.31;;;-1.07;84.14
70684;BME280;58263;48.146;11.440;2024-01-30T01:16:42;97061.84;;;-0.85;83.53
70684;BME280;58263;48.146;11.440;2024-01-30T01:19:07;97058.75;;;-0.90;82.27
70684;BME280;58263;48.146;11.440;2024-01-30T01:21:32;97061.84;;;-0.85;82.19
70684;BME280;58263;48.146;11.440;2024-01-30T01:23:58;97074.09;;;-0.95;82.26
70684;BME280;58263;48.146;11.440;2024-01-30T01:26:23;97065.94;;;-0.92;82.53
70684;BME280;58263;48.146;11.440;2024-01-30T01:28:48;97068.38;;;-1.00;82.76
70684;BME280;58263;48.146;11.440;2024-01-30T01:31:13;97068.38;;;-1.00;82.96
70684;BME280;58263;48.146;11.440;2024-01-30T01:33:39;97064.78;;;-0.99;82.75
70684;BME280;58263;48.146;11.440;2024-01-30T01:36:04;97063.94;;;-1.00;83.31
70684;BME280;58263;48.146;11.440;2024-01-30T01:38:29;97064.66;;;-0.98;82.83
70684;BME280;58263;48.146;11.440;2024-01-30T01:40:55;97066.63;;;-1.11;83.09
70684;BME280;58263;48.146;11.440;2024-01-30T01:43:20;97064.09;;;-1.13;83.29
70684;BME280;58263;48.146;11.440;2024-01-30T01:45:45;97055.97;;;-0.89;82.75
70684;BME280;58263;48.146;11.440;2024-01-30T01:48:11;97066.75;;;-1.13;83.39
70684;BME280;58263;48.146;11.440;2024-01-30T01:50:37;97069.50;;;-1.14;84.13
70684;BME280;58263;48.146;11.440;2024-01-30T01:53:03;97064.56;;;-1.08;83.11
70684;BME280;58263;48.146;11.440;2024-01-30T01:55:30;97066.09;;;-1.05;82.80
70684;BME280;58263;48.146;11.440;2024-01-30T01:57:56;97064.78;;;-0.99;82.59
70684;BME280;58263;48.146;11.440;2024-01-30T02:00:22;97067.47;;;-1.22;83.11
70684;BME280;58263;48.146;11.440;2024-01-30T02:02:49;97063.41;;;-1.26;83.02
70684;BME280;58263;48.146;11.440;2024-01-30T02:05:15;97065.72;;;-1.33;83.65
70684;BME280;58263;48.146;11.440;2024-01-30T02:07:42;97066.31;;;-1.29;84.10
70684;BME280;58263;48.146;11.440;2024-01-30T02:10:08;97061.75;;;-1.27;83.49
70684;BME280;58263;48.146;11.440;2024-01-30T02:12:35;97062.75;;;-1.51;84.47
70684;BME280;58263;48.146;11.440;2024-01-30T02:15:00;97060.13;;;-1.62;85.22
70684;BME280;58263;48.146;11.440;2024-01-30T02:17:25;97059.19;;;-1.73;85.25
70684;BME280;58263;48.146;11.440;2024-01-30T02:19:51;97062.44;;;-1.69;86.02
70684;BME280;58263;48.146;11.440;2024-01-30T02:22:17;97060.84;;;-1.60;87.15
70684;BME280;58263;48.146;11.440;2024-01-30T02:24:43;97068.63;;;-1.81;86.63
70684;BME280;58263;48.146;11.440;2024-01-30T02:27:08;97062.06;;;-1.76;86.60
70684;BME280;58263;48.146;11.440;2024-01-30T02:29:33;97062.19;;;-1.89;87.06
70684;BME280;58263;48.146;11.440;2024-01-30T02:31:59;97060.41;;;-1.88;87.37
70684;BME280;58263;48.146;11.440;2024-01-30T02:34:24;97062.44;;;-1.69;87.34
70684;BME280;58263;48.146;11.440;2024-01-30T02:36:49;97056.66;;;-1.63;86.97
70684;BME280;58263;48.146;11.440;2024-01-30T02:39:14;97062.88;;;-1.64;86.67
70684;BME280;58263;48.146;11.440;2024-01-30T02:41:40;97059.28;;;-1.51;85.92
70684;BME280;58263;48.146;11.440;2024-01-30T02:44:05;97055.81;;;-1.52;86.09
70684;BME280;58263;48.146;11.440;2024-01-30T02:46:30;97056.31;;;-1.70;86.75
70684;BME280;58263;48.146;11.440;2024-01-30T02:48:55;97054.03;;;-1.63;86.71
70684;BME280;58263;48.146;11.440;2024-01-30T02:51:21;97051.03;;;-1.47;85.27
70684;BME280;58263;48.146;11.440;2024-01-30T02:53:46;97052.47;;;-1.43;84.55
70684;BME280;58263;48.146;11.440;2024-01-30T02:56:11;97045.78;;;-1.70;85.77
70684;BME280;58263;48.146;11.440;2024-01-30T02:58:39;97044.94;;;-1.59;85.16
70684;BME280;58263;48.146;11.440;2024-01-30T03:01:04;97048.78;;;-1.63;85.24
70684;BME280;58263;48.146;11.440;2024-01-30T03:03:29;97044.09;;;-1.71;85.68
70684;BME280;58263;48.146;11.440;2024-01-30T03:05:55;97043.63;;;-1.64;86.24
70684;BME280;58263;48.146;11.440;2024-01-30T03:08:20;97044.81;;;-1.57;85.50
70684;BME280;58263;48.146;11.440;2024-01-30T03:10:46;97039.59;;;-1.80;86.34
70684;BME280;58263;48.146;11.440;2024-01-30T03:13:11;97038.84;;;-1.71;86.74
70684;BME280;58263;48.146;11.440;2024-01-30T03:15:36;97038.63;;;-1.90;86.66
70684;BME280;58263;48.146;11.440;2024-01-30T03:18:02;97035.78;;;-1.76;85.63
70684;BME280;58263;48.146;11.440;2024-01-30T03:20:29;97036.34;;;-1.61;85.32
70684;BME280;58263;48.146;11.440;2024-01-30T03:22:55;97036.66;;;-1.54;84.79
70684;BME280;58263;48.146;11.440;2024-01-30T03:25:20;97027.13;;;-1.55;84.49
70684;BME280;58263;48.146;11.440;2024-01-30T03:27:45;97028.09;;;-1.67;84.52
70684;BME280;58263;48.146;11.440;2024-01-30T03:30:11;97037.81;;;-1.91;86.52
70684;BME280;58263;48.146;11.440;2024-01-30T03:32:36;97028.47;;;-1.72;85.89
70684;BME280;58263;48.146;11.440;2024-01-30T03:35:01;97040.91;;;-1.74;85.63
70684;BME280;58263;48.146;11.440;2024-01-30T03:37:26;97036.22;;;-1.71;85.74
70684;BME280;58263;48.146;11.440;2024-01-30T03:39:52;97030.72;;;-1.79;85.60
70684;BME280;58263;48.146;11.440;2024-01-30T03:42:17;97027.59;;;-1.61;85.42
70684;BME280;58263;48.146;11.440;2024-01-30T03:44:42;97027.03;;;-1.65;85.32
70684;BME280;58263;48.146;11.440;2024-01-30T03:47:07;97025.22;;;-1.64;84.95
70684;BME280;58263;48.146;11.440;2024-01-30T03:49:33;97035.41;;;-1.82;86.02
70684;BME280;58263;48.146;11.440;2024-01-30T03:51:58;97027.41;;;-1.81;85.67
70684;BME280;58263;48.146;11.440;2024-01-30T03:54:23;97033.00;;;-1.74;85.49
70684;BME280;58263;48.146;11.440;2024-01-30T03:56:49;97030.25;;;-1.73;85.07
70684;BME280;58263;48.146;11.440;2024-01-30T03:59:14;97034.31;;;-1.68;84.27
70684;BME280;58263;48.146;11.440;2024-01-30T04:01:39;97041.28;;;-1.90;85.07
70684;BME280;58263;48.146;11.440;2024-01-30T04:04:05;97042.72;;;-1.97;85.21
70684;BME280;58263;48.146;11.440;2024-01-30T04:06:30;97033.13;;;-1.76;84.38
70684;BME280;58263;48.146;11.440;2024-01-30T04:08:55;97034.09;;;-1.77;84.37
70684;BME280;58263;48.146;11.440;2024-01-30T04:11:20;97044.72;;;-1.90;85.69
70684;BME280;58263;48.146;11.440;2024-01-30T04:13:46;97044.97;;;-1.93;86.22
70684;BME280;58263;48.146;11.440;2024-01-30T04:16:22;97030.88;;;-1.92;86.90
70684;BME280;58263;48.146;11.440;2024-01-30T04:18:48;97025.97;;;-1.85;86.80
70684;BME280;58263;48.146;11.440;2024-01-30T04:21:13;97029.69;;;-1.99;86.52
70684;BME280;58263;48.146;11.440;2024-01-30T04:23:42;97025.97;;;-2.08;86.58
70684;BME280;58263;48.146;11.440;2024-01-30T04:26:07;97036.38;;;-2.06;87.28
70684;BME280;58263;48.146;11.440;2024-01-30T04:28:32;97027.41;;;-2.15;86.87
70684;BME280;58263;48.146;11.440;2024-01-30T04:30:57;97029.53;;;-2.09;86.66
70684;BME280;58263;48.146;11.440;2024-01-30T04:33:23;97028.13;;;-1.90;85.55
70684;BME280;58263;48.146;11.440;2024-01-30T04:35:48;97034.81;;;-1.86;85.23
70684;BME280;58263;48.146;11.440;2024-01-30T04:38:13;97033.63;;;-1.93;85.25
70684;BME280;58263;48.146;11.440;2024-01-30T04:40:40;97030.28;;;-2.07;85.76
70684;BME280;58263;48.146;11.440;2024-01-30T04:43:05;97031.09;;;-2.06;86.05
70684;BME280;58263;48.146;11.440;2024-01-30T04:45:30;97033.84;;;-2.08;86.49
70684;BME280;58263;48.146;11.440;2024-01-30T04:47:55;97030.41;;;-1.97;86.13
70684;BME280;58263;48.146;11.440;2024-01-30T04:50:21;97031.47;;;-1.99;85.75
70684;BME280;58263;48.146;11.440;2024-01-30T04:52:46;97036.75;;;-1.88;86.10
70684;BME280;58263;48.146;11.440;2024-01-30T04:55:11;97032.06;;;-1.84;85.50
70684;BME280;58263;48.146;11.440;2024-01-30T04:57:36;97027.88;;;-1.76;85.08
70684;BME280;58263;48.146;11.440;2024-01-30T05:00:02;97027.97;;;-1.77;84.30
70684;BME280;58263;48.146;11.440;2024-01-30T05:02:28;97029.75;;;-1.55;83.34
70684;BME280;58263;48.146;11.440;2024-01-30T05:04:53;97040.88;;;-1.63;83.34
70684;BME280;58263;48.146;11.440;2024-01-30T05:07:18;97029.44;;;-1.73;83.71
70684;BME280;58263;48.146;11.440;2024-01-30T05:09:44;97036.69;;;-1.65;83.40
70684;BME280;58263;48.146;11.440;2024-01-30T05:12:09;97046.50;;;-1.79;84.10
70684;BME280;58263;48.146;11.440;2024-01-30T05:14:34;97040.06;;;-1.75;83.61
70684;BME280;58263;48.146;11.440;2024-01-30T05:16:59;97042.91;;;-1.66;83.34
70684;BME280;58263;48.146;11.440;2024-01-30T05:19:25;97037.31;;;-1.73;83.81
70684;BME280;58263;48.146;11.440;2024-01-30T05:21:50;97039.44;;;-1.67;83.02
70684;BME280;58263;48.146;11.440;2024-01-30T05:24:15;97044.38;;;-1.85;83.96
70684;BME280;58263;48.146;11.440;2024-01-30T05:26:41;97038.16;;;-1.84;84.37
70684;BME280;58263;48.146;11.440;2024-01-30T05:29:06;97050.69;;;-1.76;83.89
70684;BME280;58263;48.146;11.440;2024-01-30T05:31:32;97041.63;;;-1.83;84.33
70684;BME280;58263;48.146;11.440;2024-01-30T05:33:58;97045.31;;;-1.86;85.02
70684;BME280;58263;48.146;11.440;2024-01-30T05:36:23;97047.72;;;-1.94;85.31
70684;BME280;58263;48.146;11.440;2024-01-30T05:38:48;97047.97;;;-1.97;85.39
70684;BME280;58263;48.146;11.440;2024-01-30T05:41:13;97047.84;;;-1.84;84.97
70684;BME280;58263;48.146;11.440;2024-01-30T05:43:39;97053.34;;;-1.88;84.82
70684;BME280;58263;48.146;11.440;2024-01-30T05:46:04;97053.81;;;-1.82;84.32
70684;BME280;58263;48.146;11.440;2024-01-30T05:48:29;97045.94;;;-1.82;84.48
70684;BME280;58263;48.146;11.440;2024-01-30T05:50:55;97053.34;;;-1.88;84.67
70684;BME280;58263;48.146;11.440;2024-01-30T05:53:21;97060.16;;;-2.08;85.77
70684;BME280;58263;48.146;11.440;2024-01-30T05:55:46;97059.44;;;-2.10;86.02
70684;BME280;58263;48.146;11.440;2024-01-30T05:58:12;97058.25;;;-1.94;84.97
70684;BME280;58263;48.146;11.440;2024-01-30T06:00:37;97063.13;;;-1.90;85.05
70684;BME280;58263;48.146;11.440;2024-01-30T06:03:02;97070.19;;;-1.90;84.52
70684;BME280;58263;48.146;11.440;2024-01-30T06:05:28;97064.31;;;-1.94;85.15
70684;BME280;58263;48.146;11.440;2024-01-30T06:07:53;97057.28;;;-2.27;86.47
70684;BME280;58263;48.146;11.440;2024-01-30T06:10:18;97056.94;;;-2.11;86.35
70684;BME280;58263;48.146;11.440;2024-01-30T06:12:44;97058.22;;;-2.17;86.63
70684;BME280;58263;48.146;11.440;2024-01-30T06:15:09;97059.44;;;-2.10;86.48
70684;BME280;58263;48.146;11.440;2024-01-30T06:17:35;97063.03;;;-2.11;86.63
70684;BME280;58263;48.146;11.440;2024-01-30T06:20:00;97063.72;;;-2.20;86.49
70684;BME280;58263;48.146;11.440;2024-01-30T06:22:25;97057.75;;;-2.11;86.33
70684;BME280;58263;48.146;11.440;2024-01-30T06:24:50;97051.56;;;-1.98;86.00
70684;BME280;58263;48.146;11.440;2024-01-30T06:27:16;97055.38;;;-1.91;85.31
70684;BME280;58263;48.146;11.440;2024-01-30T06:29:43;97064.94;;;-2.01;85.71
70684;BME280;58263;48.146;11.440;2024-01-30T06:32:08;97071.41;;;-2.06;85.93
70684;BME280;58263;48.146;11.440;2024-01-30T06:34:33;97073.28;;;-2.08;86.48
70684;BME280;58263;48.146;11.440;2024-01-30T06:36:58;97079.50;;;-1.86;85.79
70684;BME280;58263;48.146;11.440;2024-01-30T06:39:24;97079.28;;;-2.06;86.12
70684;BME280;58263;48.146;11.440;2024-01-30T06:41:50;97075.19;;;-1.87;85.76
70684;BME280;58263;48.146;11.440;2024-01-30T06:44:15;97081.91;;;-1.83;84.99
70684;BME280;58263;48.146;11.440;2024-01-30T06:46:40;97082.38;;;-1.78;84.35
70684;BME280;58263;48.146;11.440;2024-01-30T06:49:06;97079.50;;;-1.86;85.09
70684;BME280;58263;48.146;11.440;2024-01-30T06:51:31;97083.09;;;-1.98;85.68
70684;BME280;58263;48.146;11.440;2024-01-30T06:53:56;97080.47;;;-2.10;86.52
70684;BME280;58263;48.146;11.440;2024-01-30T06:56:21;97079.72;;;-2.00;85.97
70684;BME280;58263;48.146;11.440;2024-01-30T06:58:48;97082.38;;;-1.89;85.47
70684;BME280;58263;48.146;11.440;2024-01-30T07:01:14;97078.19;;;-1.92;85.47
70684;BME280;58263;48.146;11.440;2024-01-30T07:03:40;97087.16;;;-1.83;85.21
70684;BME280;58263;48.146;11.440;2024-01-30T07:06:05;97076.63;;;-1.83;84.98
70684;BME280;58263;48.146;11.440;2024-01-30T07:08:30;97077.00;;;-1.76;84.92
70684;BME280;58263;48.146;11.440;2024-01-30T07:10:55;97076.88;;;-1.75;85.43
70684;BME280;58263;48.146;11.440;2024-01-30T07:13:21;97078.56;;;-1.85;85.65
70684;BME280;58263;48.146;11.440;2024-01-30T07:15:46;97087.50;;;-1.76;85.48
70684;BME280;58263;48.146;11.440;2024-01-30T07:18:11;97086.94;;;-1.68;85.58
70684;BME280;58263;48.146;11.440;2024-01-30T07:20:38;97084.03;;;-1.65;85.34
70684;BME280;58263;48.146;11.440;2024-01-30T07:23:07;97078.88;;;-1.56;84.78
70684;BME280;58263;48.146;11.440;2024-01-30T07:25:33;97082.59;;;-1.47;84.75
70684;BME280;58263;48.146;11.440;2024-01-30T07:28:01;97081.53;;;-1.44;84.54
70684;BME280;58263;48.146;11.440;2024-01-30T07:30:27;97087.00;;;-1.47;85.72
70684;BME280;58263;48.146;11.440;2024-01-30T07:32:52;97088.94;;;-1.49;85.84
70684;BME280;58263;48.146;11.440;2024-01-30T07:35:17;97088.31;;;-1.30;84.69
70684;BME280;58263;48.146;11.440;2024-01-30T07:37:43;97091.63;;;-1.17;84.14
70684;BME280;58263;48.146;11.440;2024-01-30T07:40:08;97095.91;;;-1.05;83.61
70684;BME280;58263;48.146;11.440;2024-01-30T07:42:33;97093.28;;;-1.05;84.09
70684;BME280;58263;48.146;11.440;2024-01-30T07:45:00;97098.41;;;-1.03;84.35
70684;BME280;58263;48.146;11.440;2024-01-30T07:47:25;97108.13;;;-1.04;84.58
70684;BME280;58263;48.146;11.440;2024-01-30T07:49:50;97101.13;;;-0.93;84.65
70684;BME280;58263;48.146;11.440;2024-01-30T07:52:16;97102.41;;;-0.76;84.85
70684;BME280;58263;48.146;11.440;2024-01-30T07:54:41;97097.69;;;-0.61;83.88
70684;BME280;58263;48.146;11.440;2024-01-30T07:57:07;97101.72;;;-0.57;83.39
70684;BME280;58263;48.146;11.440;2024-01-30T07:59:32;97101.06;;;-0.49;83.43
70684;BME280;58263;48.146;11.440;2024-01-30T08:01:57;97110.72;;;-0.39;82.81
70684;BME280;58263;48.146;11.440;2024-01-30T08:04:22;97107.78;;;-0.24;82.62
70684;BME280;58263;48.146;11.440;2024-01-30T08:06:48;97098.84;;;-0.12;82.60
70684;BME280;58263;48.146;11.440;2024-01-30T08:09:14;97104.47;;;0.05;82.34
70684;BME280;58263;48.146;11.440;2024-01-30T08:11:39;97112.00;;;0.09;81.77
70684;BME280;58263;48.146;11.440;2024-01-30T08:14:04;97108.06;;;0.25;81.44
70684;BME280;58263;48.146;11.440;2024-01-30T08:16:30;97108.13;;;0.44;81.06
70684;BME280;58263;48.146;11.440;2024-01-30T08:18:55;97105.81;;;0.51;80.66
70684;BME280;58263;48.146;11.440;2024-01-30T08:21:22;97107.50;;;0.62;80.69
70684;BME280;58263;48.146;11.440;2024-01-30T08:23:47;97107.97;;;0.77;80.31
70684;BME280;58263;48.146;11.440;2024-01-30T08:26:13;97108.81;;;0.87;79.90
70684;BME280;58263;48.146;11.440;2024-01-30T08:28:38;97101.75;;;0.97;79.90
70684;BME280;58263;48.146;11.440;2024-01-30T08:31:03;97104.69;;;1.14;79.94
70684;BME280;58263;48.146;11.440;2024-01-30T08:33:29;97100.94;;;1.26;78.95
70684;BME280;58263;48.146;11.440;2024-01-30T08:35:54;97096.09;;;1.41;78.96
70684;BME280;58263;48.146;11.440;2024-01-30T08:38:19;97093.44;;;1.51;78.62
70684;BME280;58263;48.146;11.440;2024-01-30T08:40:44;97096.91;;;1.61;78.36
70684;BME280;58263;48.146;11.440;2024-01-30T08:43:10;97099.13;;;1.76;77.96
70684;BME280;58263;48.146;11.440;2024-01-30T08:45:35;97095.47;;;1.86;78.19
70684;BME280;58263;48.146;11.440;2024-01-30T08:48:00;97097.13;;;1.97;77.39
70684;BME280;58263;48.146;11.440;2024-01-30T08:50:26;97094.47;;;2.07;77.37
70684;BME280;58263;48.146;11.440;2024-01-30T08:52:51;97099.44;;;2.20;77.01
70684;BME280;58263;48.146;11.440;2024-01-30T08:55:16;97096.47;;;2.33;76.88
70684;BME280;58263;48.146;11.440;2024-01-30T08:57:41;97096.69;;;2.49;76.60
70684;BME280;58263;48.146;11.440;2024-01-30T09:00:07;97106.66;;;2.65;76.05
70684;BME280;58263;48.146;11.440;2024-01-30T09:02:34;97102.25;;;2.84;75.63
70684;BME280;58263;48.146;11.440;2024-01-30T09:05:00;97115.69;;;3.00;75.12
70684;BME280;58263;48.146;11.440;2024-01-30T09:07:25;97108.88;;;3.16;74.87
70684;BME280;58263;48.146;11.440;2024-01-30T09:09:50;97111.09;;;3.38;74.62
70684;BME280;58263;48.146;11.440;2024-01-30T09:12:15;97109.00;;;3.60;74.33
70684;BME280;58263;48.146;11.440;2024-01-30T09:14:41;97110.91;;;3.76;73.75
70684;BME280;58263;48.146;11.440;2024-01-30T09:17:06;97111.03;;;3.93;73.18
70684;BME280;58263;48.146;11.440;2024-01-30T09:19:32;97112.50;;;4.05;73.60
70684;BME280;58263;48.146;11.440;2024-01-30T09:21:57;97111.25;;;4.17;73.25
70684;BME280;58263;48.146;11.440;2024-01-30T09:24:22;97116.81;;;4.32;72.36
70684;BME280;58263;48.146;11.440;2024-01-30T09:26:47;97117.38;;;4.44;72.06
70684;BME280;58263;48.146;11.440;2024-01-30T09:29:13;97116.25;;;4.55;72.47
70684;BME280;58263;48.146;11.440;2024-01-30T09:31:38;97123.97;;;4.66;72.40
70684;BME280;58263;48.146;11.440;2024-01-30T09:34:03;97118.53;;;4.76;72.72
70684;BME280;58263;48.146;11.440;2024-01-30T09:36:28;97123.38;;;4.89;72.09
70684;BME280;58263;48.146;11.440;2024-01-30T09:38:54;97113.13;;;5.02;71.98
70684;BME280;58263;48.146;11.440;2024-01-30T09:41:19;97118.31;;;5.12;70.79
70684;BME280;58263;48.146;11.440;2024-01-30T09:43:50;97121.88;;;5.29;69.46
70684;BME280;58263;48.146;11.440;2024-01-30T09:46:17;97123.22;;;5.41;69.07
70684;BME280;58263;48.146;11.440;2024-01-30T09:48:46;97124.91;;;5.59;66.88
70684;BME280;58263;48.146;11.440;2024-01-30T09:51:13;97112.09;;;5.71;66.14
70684;BME280;58263;48.146;11.440;2024-01-30T09:53:40;97109.59;;;5.86;65.11
70684;BME280;58263;48.146;11.440;2024-01-30T09:56:05;97108.81;;;6.02;64.92
70684;BME280;58263;48.146;11.440;2024-01-30T09:58:30;97113.13;;;6.19;65.47
70684;BME280;58263;48.146;11.440;2024-01-30T10:00:55;97113.25;;;6.34;65.55
70684;BME280;58263;48.146;11.440;2024-01-30T10:03:21;97114.91;;;6.52;64.66
70684;BME280;58263;48.146;11.440;2024-01-30T10:05:51;97109.47;;;6.76;64.30
70684;BME280;58263;48.146;11.440;2024-01-30T10:08:18;97115.53;;;7.02;63.40
70684;BME280;58263;48.146;11.440;2024-01-30T10:10:46;97103.72;;;7.27;61.64
70684;BME280;58263;48.146;11.440;2024-01-30T10:13:11;97111.59;;;7.52;62.08
70684;BME280;58263;48.146;11.440;2024-01-30T10:15:37;97099.91;;;7.76;60.87
70684;BME280;58263;48.146;11.440;2024-01-30T10:18:08;97109.38;;;8.02;60.22
70684;BME280;58263;48.146;11.440;2024-01-30T10:20:34;97102.44;;;8.31;59.42
70684;BME280;58263;48.146;11.440;2024-01-30T10:22:59;97098.72;;;8.70;57.88
70684;BME280;58263;48.146;11.440;2024-01-30T10:25:25;97096.03;;;9.00;56.64
70684;BME280;58263;48.146;11.440;2024-01-30T10:27:54;97093.28;;;9.30;55.97
70684;BME280;58263;48.146;11.440;2024-01-30T10:30:23;97093.06;;;9.68;54.81
70684;BME280;58263;48.146;11.440;2024-01-30T10:32:49;97083.34;;;10.10;53.40
70684;BME280;58263;48.146;11.440;2024-01-30T10:35:15;97085.09;;;10.53;52.03
70684;BME280;58263;48.146;11.440;2024-01-30T10:37:43;97077.69;;;10.97;49.86
70684;BME280;58263;48.146;11.440;2024-01-30T10:40:09;97070.84;;;11.43;50.50
70684;BME280;58263;48.146;11.440;2024-01-30T10:42:37;97076.72;;;11.87;48.25
70684;BME280;58263;48.146;11.440;2024-01-30T10:45:08;97068.06;;;12.25;47.57
70684;BME280;58263;48.146;11.440;2024-01-30T10:47:35;97052.28;;;12.48;42.27
70684;BME280;58263;48.146;11.440;2024-01-30T10:50:04;97049.72;;;12.87;42.97
70684;BME280;58263;48.146;11.440;2024-01-30T10:52:31;97050.41;;;13.21;42.06
70684;BME280;58263;48.146;11.440;2024-01-30T10:54:58;97050.25;;;13.02;41.07
70684;BME280;58263;48.146;11.440;2024-01-30T10:57:24;97046.53;;;13.81;39.69
70684;BME280;58263;48.146;11.440;2024-01-30T10:59:51;97043.00;;;13.80;36.85
70684;BME280;58263;48.146;11.440;2024-01-30T11:02:18;97047.59;;;13.80;37.52
70684;BME280;58263;48.146;11.440;2024-01-30T11:04:45;97044.88;;;14.93;38.41
70684;BME280;58263;48.146;11.440;2024-01-30T11:07:18;97047.06;;;14.84;33.54
70684;BME280;58263;48.146;11.440;2024-01-30T11:09:51;97036.97;;;16.01;35.95
70684;BME280;58263;48.146;11.440;2024-01-30T11:12:16;97032.63;;;16.23;33.89
70684;BME280;58263;48.146;11.440;2024-01-30T11:14:41;97032.69;;;17.12;34.85
70684;BME280;58263;48.146;11.440;2024-01-30T11:17:09;97024.84;;;16.15;31.55
70684;BME280;58263;48.146;11.440;2024-01-30T11:19:35;97036.63;;;15.67;32.34
70684;BME280;58263;48.146;11.440;2024-01-30T11:22:00;97033.81;;;16.28;32.20
70684;BME280;58263;48.146;11.440;2024-01-30T11:24:26;97024.25;;;16.72;32.03
70684;BME280;58263;48.146;11.440;2024-01-30T11:27:02;97021.66;;;15.95;32.42
70684;BME280;58263;48.146;11.440;2024-01-30T11:29:28;97015.56;;;16.47;33.63
70684;BME280;58263;48.146;11.440;2024-01-30T11:31:58;97015.47;;;16.06;32.35
70684;BME280;58263;48.146;11.440;2024-01-30T11:34:24;97012.53;;;15.77;33.00
70684;BME280;58263;48.146;11.440;2024-01-30T11:36:55;97002.94;;;15.81;33.59
70684;BME280;58263;48.146;11.440;2024-01-30T11:39:24;97002.16;;;16.28;31.23
70684;BME280;58263;48.146;11.440;2024-01-30T11:41:50;97000.56;;;17.78;31.24
70684;BME280;58263;48.146;11.440;2024-01-30T11:44:16;97002.34;;;18.80;30.53
70684;BME280;58263;48.146;11.440;2024-01-30T11:46:41;97005.09;;;19.24;29.70
70684;BME280;58263;48.146;11.440;2024-01-30T11:49:07;97000.81;;;19.55;28.61
70684;BME280;58263;48.146;11.440;2024-01-30T11:51:32;96999.28;;;19.42;28.32
70684;BME280;58263;48.146;11.440;2024-01-30T11:53:58;97005.41;;;19.28;27.83
70684;BME280;58263;48.146;11.440;2024-01-30T11:56:26;97000.41;;;19.74;26.93
70684;BME280;58263;48.146;11.440;2024-01-30T11:58:52;96989.97;;;21.32;26.53
70684;BME280;58263;48.146;11.440;2024-01-30T12:01:17;96983.25;;;21.96;25.73
70684;BME280;58263;48.146;11.440;2024-01-30T12:03:42;96982.38;;;20.33;26.37
70684;BME280;58263;48.146;11.440;2024-01-30T12:06:08;96981.84;;;20.31;26.59
70684;BME280;58263;48.146;11.440;2024-01-30T12:08:33;96986.59;;;18.59;27.67
70684;BME280;58263;48.146;11.440;2024-01-30T12:10:58;96985.59;;;19.32;27.56
70684;BME280;58263;48.146;11.440;2024-01-30T12:13:26;96982.03;;;19.32;27.08
70684;BME280;58263;48.146;11.440;2024-01-30T12:15:51;96983.63;;;19.82;28.22
70684;BME280;58263;48.146;11.440;2024-01-30T12:18:20;96972.13;;;20.50;26.97
70684;BME280;58263;48.146;11.440;2024-01-30T12:20:45;96964.16;;;20.81;26.59
70684;BME280;58263;48.146;11.440;2024-01-30T12:23:12;96967.00;;;20.11;27.13
70684;BME280;58263;48.146;11.440;2024-01-30T12:25:37;96958.16;;;19.99;27.61
70684;BME280;58263;48.146;11.440;2024-01-30T12:28:03;96962.31;;;19.74;26.70
70684;BME280;58263;48.146;11.440;2024-01-30T12:30:29;96960.72;;;19.46;26.14
70684;BME280;58263;48.146;11.440;2024-01-30T12:32:55;96958.13;;;18.84;27.46
70684;BME280;58263;48.146;11.440;2024-01-30T12:35:20;96955.66;;;19.59;27.65
70684;BME280;58263;48.146;11.440;2024-01-30T12:37:47;96951.97;;;20.03;26.10
70684;BME280;58263;48.146;11.440;2024-01-30T12:40:14;96945.84;;;20.29;25.12
70684;BME280;58263;48.146;11.440;2024-01-30T12:42:43;96949.69;;;19.63;25.27
70684;BME280;58263;48.146;11.440;2024-01-30T12:45:14;96943.41;;;19.89;25.66